sensor_id;sensor_type;location;lat;lon;timestamp;P1;durP1;ratioP1;P2;durP2;ratioP2
74415;SDS011;62850;42.428;25.618;2023-07-24T00:01:02;9.88;;;6.10;;
74415;SDS011;62850;42.428;25.618;2023-07-24T00:03:27;10.05;;;6.43;;
74415;SDS011;62850;42.428;25.618;2023-07-24T00:05:53;10.60;;;6.45;;
74415;SDS011;62850;42.428;25.618;2023-07-24T00:08:18;10.77;;;6.28;;
74415;SDS011;62850;42.428;25.618;2023-07-24T00:10:44;12.10;;;6.35;;
74415;SDS011;62850;42.428;25.618;2023-07-24T00:13:09;14.30;;;6.72;;
74415;SDS011;62850;42.428;25.618;2023-07-24T00:15:35;10.93;;;6.30;;
74415;SDS011;62850;42.428;25.618;2023-07-24T00:18:00;8.77;;;5.95;;
74415;SDS011;62850;42.428;25.618;2023-07-24T00:20:26;10.60;;;6.03;;
74415;SDS011;62850;42.428;25.618;2023-07-24T00:22:52;9.60;;;6.00;;
74415;SDS011;62850;42.428;25.618;2023-07-24T00:25:17;9.68;;;6.38;;
74415;SDS011;62850;42.428;25.618;2023-07-24T00:27:43;11.93;;;6.00;;
74415;SDS011;62850;42.428;25.618;2023-07-24T00:30:09;9.60;;;6.70;;
74415;SDS011;62850;42.428;25.618;2023-07-24T00:32:34;11.68;;;6.32;;
74415;SDS011;62850;42.428;25.618;2023-07-24T00:35:00;12.43;;;6.55;;
74415;SDS011;62850;42.428;25.618;2023-07-24T00:37:25;10.48;;;6.50;;
74415;SDS011;62850;42.428;25.618;2023-07-24T00:39:51;12.48;;;6.75;;
74415;SDS011;62850;42.428;25.618;2023-07-24T00:42:16;10.73;;;6.30;;
74415;SDS011;62850;42.428;25.618;2023-07-24T00:44:42;11.80;;;6.60;;
74415;SDS011;62850;42.428;25.618;2023-07-24T00:47:07;11.32;;;6.47;;
74415;SDS011;62850;42.428;25.618;2023-07-24T00:49:33;12.25;;;6.32;;
74415;SDS011;62850;42.428;25.618;2023-07-24T00:51:59;9.55;;;5.97;;
74415;SDS011;62850;42.428;25.618;2023-07-24T00:54:25;10.25;;;6.07;;
74415;SDS011;62850;42.428;25.618;2023-07-24T00:56:54;8.43;;;5.90;;
74415;SDS011;62850;42.428;25.618;2023-07-24T00:59:20;10.88;;;6.35;;
74415;SDS011;62850;42.428;25.618;2023-07-24T01:01:46;10.95;;;6.47;;
74415;SDS011;62850;42.428;25.618;2023-07-24T01:04:13;9.50;;;6.38;;
74415;SDS011;62850;42.428;25.618;2023-07-24T01:06:39;11.02;;;5.75;;
74415;SDS011;62850;42.428;25.618;2023-07-24T01:09:05;10.90;;;6.82;;
74415;SDS011;62850;42.428;25.618;2023-07-24T01:11:36;10.70;;;6.95;;
74415;SDS011;62850;42.428;25.618;2023-07-24T01:16:49;10.95;;;6.82;;
74415;SDS011;62850;42.428;25.618;2023-07-24T01:22:07;8.63;;;6.00;;
74415;SDS011;62850;42.428;25.618;2023-07-24T01:25:09;8.75;;;6.43;;
74415;SDS011;62850;42.428;25.618;2023-07-24T01:27:40;10.85;;;6.03;;
74415;SDS011;62850;42.428;25.618;2023-07-24T01:30:09;10.45;;;6.68;;
74415;SDS011;62850;42.428;25.618;2023-07-24T01:32:36;11.55;;;7.10;;
74415;SDS011;62850;42.428;25.618;2023-07-24T01:35:02;9.65;;;6.45;;
74415;SDS011;62850;42.428;25.618;2023-07-24T01:37:28;9.57;;;6.30;;
74415;SDS011;62850;42.428;25.618;2023-07-24T01:39:54;10.95;;;6.30;;
74415;SDS011;62850;42.428;25.618;2023-07-24T01:42:21;10.95;;;6.65;;
74415;SDS011;62850;42.428;25.618;2023-07-24T01:44:51;10.43;;;6.22;;
74415;SDS011;62850;42.428;25.618;2023-07-24T01:47:17;9.30;;;6.32;;
74415;SDS011;62850;42.428;25.618;2023-07-24T01:49:43;10.43;;;5.97;;
74415;SDS011;62850;42.428;25.618;2023-07-24T01:52:08;10.70;;;6.35;;
74415;SDS011;62850;42.428;25.618;2023-07-24T01:54:34;9.82;;;6.50;;
74415;SDS011;62850;42.428;25.618;2023-07-24T01:56:59;9.50;;;6.50;;
74415;SDS011;62850;42.428;25.618;2023-07-24T01:59:25;12.30;;;6.20;;
74415;SDS011;62850;42.428;25.618;2023-07-24T02:01:50;8.57;;;5.60;;
74415;SDS011;62850;42.428;25.618;2023-07-24T02:04:16;11.48;;;6.38;;
74415;SDS011;62850;42.428;25.618;2023-07-24T02:06:41;8.68;;;5.80;;
74415;SDS011;62850;42.428;25.618;2023-07-24T02:09:07;8.93;;;6.47;;
74415;SDS011;62850;42.428;25.618;2023-07-24T02:11:32;8.88;;;5.93;;
74415;SDS011;62850;42.428;25.618;2023-07-24T02:13:57;9.13;;;5.68;;
74415;SDS011;62850;42.428;25.618;2023-07-24T02:16:24;10.77;;;5.65;;
74415;SDS011;62850;42.428;25.618;2023-07-24T02:18:49;8.48;;;6.20;;
74415;SDS011;62850;42.428;25.618;2023-07-24T02:21:15;8.30;;;5.78;;
74415;SDS011;62850;42.428;25.618;2023-07-24T02:23:40;9.38;;;6.10;;
74415;SDS011;62850;42.428;25.618;2023-07-24T02:26:06;9.15;;;5.65;;
74415;SDS011;62850;42.428;25.618;2023-07-24T02:28:31;9.68;;;6.15;;
74415;SDS011;62850;42.428;25.618;2023-07-24T02:30:57;9.43;;;6.60;;
74415;SDS011;62850;42.428;25.618;2023-07-24T02:33:22;9.18;;;6.10;;
74415;SDS011;62850;42.428;25.618;2023-07-24T02:35:49;10.98;;;5.93;;
74415;SDS011;62850;42.428;25.618;2023-07-24T02:38:16;8.18;;;5.57;;
74415;SDS011;62850;42.428;25.618;2023-07-24T02:40:43;8.38;;;5.32;;
74415;SDS011;62850;42.428;25.618;2023-07-24T02:43:09;8.90;;;5.20;;
74415;SDS011;62850;42.428;25.618;2023-07-24T02:45:34;8.02;;;5.63;;
74415;SDS011;62850;42.428;25.618;2023-07-24T02:48:00;7.95;;;5.22;;
74415;SDS011;62850;42.428;25.618;2023-07-24T02:50:27;8.55;;;5.78;;
74415;SDS011;62850;42.428;25.618;2023-07-24T02:52:53;7.47;;;5.90;;
74415;SDS011;62850;42.428;25.618;2023-07-24T02:55:18;9.18;;;5.90;;
74415;SDS011;62850;42.428;25.618;2023-07-24T02:57:44;10.43;;;5.82;;
74415;SDS011;62850;42.428;25.618;2023-07-24T03:00:10;8.10;;;6.00;;
74415;SDS011;62850;42.428;25.618;2023-07-24T03:02:35;8.13;;;5.55;;
74415;SDS011;62850;42.428;25.618;2023-07-24T03:05:01;9.82;;;5.65;;
74415;SDS011;62850;42.428;25.618;2023-07-24T03:07:27;8.30;;;5.68;;
74415;SDS011;62850;42.428;25.618;2023-07-24T03:09:53;11.02;;;5.78;;
74415;SDS011;62850;42.428;25.618;2023-07-24T03:12:18;10.35;;;5.68;;
74415;SDS011;62850;42.428;25.618;2023-07-24T03:14:44;7.60;;;5.68;;
74415;SDS011;62850;42.428;25.618;2023-07-24T03:17:09;12.00;;;5.70;;
74415;SDS011;62850;42.428;25.618;2023-07-24T03:19:35;9.00;;;5.60;;
74415;SDS011;62850;42.428;25.618;2023-07-24T03:22:00;9.60;;;6.15;;
74415;SDS011;62850;42.428;25.618;2023-07-24T03:24:26;8.68;;;5.78;;
74415;SDS011;62850;42.428;25.618;2023-07-24T03:26:52;8.00;;;5.75;;
74415;SDS011;62850;42.428;25.618;2023-07-24T03:29:18;8.05;;;5.68;;
74415;SDS011;62850;42.428;25.618;2023-07-24T03:31:43;8.35;;;5.72;;
74415;SDS011;62850;42.428;25.618;2023-07-24T03:34:09;9.68;;;6.22;;
74415;SDS011;62850;42.428;25.618;2023-07-24T03:36:34;8.93;;;6.07;;
74415;SDS011;62850;42.428;25.618;2023-07-24T03:39:00;9.52;;;6.15;;
74415;SDS011;62850;42.428;25.618;2023-07-24T03:41:26;7.05;;;5.47;;
74415;SDS011;62850;42.428;25.618;2023-07-24T03:43:51;7.55;;;5.55;;
74415;SDS011;62850;42.428;25.618;2023-07-24T03:46:17;9.82;;;5.95;;
74415;SDS011;62850;42.428;25.618;2023-07-24T03:48:42;8.77;;;6.10;;
74415;SDS011;62850;42.428;25.618;2023-07-24T03:51:08;9.13;;;5.97;;
74415;SDS011;62850;42.428;25.618;2023-07-24T03:53:34;9.07;;;6.15;;
74415;SDS011;62850;42.428;25.618;2023-07-24T03:55:59;8.32;;;6.38;;
74415;SDS011;62850;42.428;25.618;2023-07-24T03:58:24;8.18;;;5.68;;
74415;SDS011;62850;42.428;25.618;2023-07-24T04:00:50;7.95;;;5.65;;
74415;SDS011;62850;42.428;25.618;2023-07-24T04:03:15;8.70;;;5.68;;
74415;SDS011;62850;42.428;25.618;2023-07-24T04:05:41;7.93;;;5.60;;
74415;SDS011;62850;42.428;25.618;2023-07-24T04:08:06;7.97;;;5.40;;
74415;SDS011;62850;42.428;25.618;2023-07-24T04:10:32;8.70;;;5.72;;
74415;SDS011;62850;42.428;25.618;2023-07-24T04:12:57;8.07;;;5.40;;
74415;SDS011;62850;42.428;25.618;2023-07-24T04:15:23;10.68;;;5.75;;
74415;SDS011;62850;42.428;25.618;2023-07-24T04:17:48;10.00;;;5.20;;
74415;SDS011;62850;42.428;25.618;2023-07-24T04:20:14;7.72;;;5.32;;
74415;SDS011;62850;42.428;25.618;2023-07-24T04:22:39;9.05;;;5.97;;
74415;SDS011;62850;42.428;25.618;2023-07-24T04:25:05;8.50;;;5.82;;
74415;SDS011;62850;42.428;25.618;2023-07-24T04:27:31;10.48;;;5.93;;
74415;SDS011;62850;42.428;25.618;2023-07-24T04:29:56;7.45;;;5.70;;
74415;SDS011;62850;42.428;25.618;2023-07-24T04:32:22;9.52;;;5.50;;
74415;SDS011;62850;42.428;25.618;2023-07-24T04:34:47;8.65;;;5.93;;
74415;SDS011;62850;42.428;25.618;2023-07-24T04:37:13;8.35;;;5.60;;
74415;SDS011;62850;42.428;25.618;2023-07-24T04:39:38;6.90;;;5.05;;
74415;SDS011;62850;42.428;25.618;2023-07-24T04:42:04;9.07;;;5.60;;
74415;SDS011;62850;42.428;25.618;2023-07-24T04:44:30;9.73;;;5.65;;
74415;SDS011;62850;42.428;25.618;2023-07-24T04:46:57;9.63;;;5.97;;
74415;SDS011;62850;42.428;25.618;2023-07-24T04:49:23;10.38;;;6.13;;
74415;SDS011;62850;42.428;25.618;2023-07-24T04:51:49;7.50;;;5.53;;
74415;SDS011;62850;42.428;25.618;2023-07-24T04:54:15;9.77;;;5.40;;
74415;SDS011;62850;42.428;25.618;2023-07-24T04:56:41;10.57;;;6.05;;
74415;SDS011;62850;42.428;25.618;2023-07-24T04:59:06;7.65;;;5.32;;
74415;SDS011;62850;42.428;25.618;2023-07-24T05:01:31;10.35;;;5.40;;
74415;SDS011;62850;42.428;25.618;2023-07-24T05:03:57;9.80;;;5.60;;
74415;SDS011;62850;42.428;25.618;2023-07-24T05:06:22;7.60;;;5.45;;
74415;SDS011;62850;42.428;25.618;2023-07-24T05:08:48;10.10;;;6.43;;
74415;SDS011;62850;42.428;25.618;2023-07-24T05:11:14;9.15;;;5.82;;
74415;SDS011;62850;42.428;25.618;2023-07-24T05:13:39;10.00;;;5.63;;
74415;SDS011;62850;42.428;25.618;2023-07-24T05:16:05;7.75;;;5.53;;
74415;SDS011;62850;42.428;25.618;2023-07-24T05:18:30;9.70;;;5.53;;
74415;SDS011;62850;42.428;25.618;2023-07-24T05:20:56;11.98;;;5.72;;
74415;SDS011;62850;42.428;25.618;2023-07-24T05:23:21;13.43;;;6.20;;
74415;SDS011;62850;42.428;25.618;2023-07-24T05:25:55;11.73;;;6.97;;
74415;SDS011;62850;42.428;25.618;2023-07-24T05:28:22;28.60;;;9.55;;
74415;SDS011;62850;42.428;25.618;2023-07-24T05:30:48;51.20;;;13.88;;
74415;SDS011;62850;42.428;25.618;2023-07-24T05:33:13;12.55;;;6.55;;
74415;SDS011;62850;42.428;25.618;2023-07-24T05:35:39;102.38;;;21.52;;
74415;SDS011;62850;42.428;25.618;2023-07-24T05:38:04;83.72;;;18.02;;
74415;SDS011;62850;42.428;25.618;2023-07-24T05:40:29;42.42;;;11.63;;
74415;SDS011;62850;42.428;25.618;2023-07-24T05:42:55;66.72;;;16.80;;
74415;SDS011;62850;42.428;25.618;2023-07-24T05:45:20;128.48;;;30.23;;
74415;SDS011;62850;42.428;25.618;2023-07-24T05:47:46;13.43;;;7.15;;
74415;SDS011;62850;42.428;25.618;2023-07-24T05:50:11;45.72;;;13.93;;
74415;SDS011;62850;42.428;25.618;2023-07-24T05:52:38;56.70;;;16.23;;
74415;SDS011;62850;42.428;25.618;2023-07-24T05:55:04;25.20;;;9.50;;
74415;SDS011;62850;42.428;25.618;2023-07-24T05:57:30;42.33;;;12.55;;
74415;SDS011;62850;42.428;25.618;2023-07-24T05:59:55;11.95;;;7.57;;
74415;SDS011;62850;42.428;25.618;2023-07-24T06:02:21;25.23;;;10.40;;
74415;SDS011;62850;42.428;25.618;2023-07-24T06:04:46;162.38;;;48.22;;
74415;SDS011;62850;42.428;25.618;2023-07-24T06:07:12;44.80;;;15.88;;
74415;SDS011;62850;42.428;25.618;2023-07-24T06:09:37;107.25;;;33.78;;
74415;SDS011;62850;42.428;25.618;2023-07-24T06:12:03;52.97;;;21.27;;
74415;SDS011;62850;42.428;25.618;2023-07-24T06:14:28;33.72;;;14.85;;
74415;SDS011;62850;42.428;25.618;2023-07-24T06:16:54;79.10;;;26.77;;
74415;SDS011;62850;42.428;25.618;2023-07-24T06:19:19;90.35;;;31.98;;
74415;SDS011;62850;42.428;25.618;2023-07-24T06:21:46;47.97;;;18.88;;
74415;SDS011;62850;42.428;25.618;2023-07-24T06:24:11;77.57;;;27.27;;
74415;SDS011;62850;42.428;25.618;2023-07-24T06:26:37;44.35;;;17.65;;
74415;SDS011;62850;42.428;25.618;2023-07-24T06:29:03;32.53;;;17.48;;
74415;SDS011;62850;42.428;25.618;2023-07-24T06:31:29;40.08;;;19.80;;
74415;SDS011;62850;42.428;25.618;2023-07-24T06:33:54;24.92;;;14.68;;
74415;SDS011;62850;42.428;25.618;2023-07-24T06:36:20;40.88;;;17.38;;
74415;SDS011;62850;42.428;25.618;2023-07-24T06:38:45;15.73;;;10.57;;
74415;SDS011;62850;42.428;25.618;2023-07-24T06:41:12;28.48;;;12.88;;
74415;SDS011;62850;42.428;25.618;2023-07-24T06:43:40;28.75;;;13.00;;
74415;SDS011;62850;42.428;25.618;2023-07-24T06:46:06;27.73;;;13.40;;
74415;SDS011;62850;42.428;25.618;2023-07-24T06:48:32;17.80;;;10.43;;
74415;SDS011;62850;42.428;25.618;2023-07-24T06:50:57;19.73;;;10.48;;
74415;SDS011;62850;42.428;25.618;2023-07-24T06:53:23;16.77;;;10.18;;
74415;SDS011;62850;42.428;25.618;2023-07-24T06:55:48;19.95;;;10.20;;
74415;SDS011;62850;42.428;25.618;2023-07-24T06:58:14;19.45;;;10.52;;
74415;SDS011;62850;42.428;25.618;2023-07-24T07:00:39;18.38;;;9.82;;
74415;SDS011;62850;42.428;25.618;2023-07-24T07:03:05;15.73;;;10.65;;
74415;SDS011;62850;42.428;25.618;2023-07-24T07:05:31;17.92;;;9.98;;
74415;SDS011;62850;42.428;25.618;2023-07-24T07:07:57;24.05;;;11.35;;
74415;SDS011;62850;42.428;25.618;2023-07-24T07:10:22;18.50;;;10.27;;
74415;SDS011;62850;42.428;25.618;2023-07-24T07:12:48;20.52;;;10.45;;
74415;SDS011;62850;42.428;25.618;2023-07-24T07:15:13;15.15;;;9.05;;
74415;SDS011;62850;42.428;25.618;2023-07-24T07:17:39;16.20;;;9.43;;
74415;SDS011;62850;42.428;25.618;2023-07-24T07:20:05;15.55;;;9.18;;
74415;SDS011;62850;42.428;25.618;2023-07-24T07:22:31;16.73;;;9.68;;
74415;SDS011;62850;42.428;25.618;2023-07-24T07:24:56;20.90;;;10.45;;
74415;SDS011;62850;42.428;25.618;2023-07-24T07:27:22;13.30;;;9.55;;
74415;SDS011;62850;42.428;25.618;2023-07-24T07:29:47;15.57;;;9.15;;
74415;SDS011;62850;42.428;25.618;2023-07-24T07:32:13;12.40;;;8.77;;
74415;SDS011;62850;42.428;25.618;2023-07-24T07:34:38;15.15;;;8.40;;
74415;SDS011;62850;42.428;25.618;2023-07-24T07:37:04;11.23;;;8.18;;
74415;SDS011;62850;42.428;25.618;2023-07-24T07:39:30;15.25;;;8.68;;
74415;SDS011;62850;42.428;25.618;2023-07-24T07:41:56;14.00;;;9.23;;
74415;SDS011;62850;42.428;25.618;2023-07-24T07:44:22;16.85;;;9.13;;
74415;SDS011;62850;42.428;25.618;2023-07-24T07:46:47;15.07;;;9.48;;
74415;SDS011;62850;42.428;25.618;2023-07-24T07:49:13;14.75;;;9.15;;
74415;SDS011;62850;42.428;25.618;2023-07-24T07:51:38;13.93;;;8.80;;
74415;SDS011;62850;42.428;25.618;2023-07-24T07:54:04;15.50;;;9.60;;
74415;SDS011;62850;42.428;25.618;2023-07-24T07:56:29;16.02;;;9.48;;
74415;SDS011;62850;42.428;25.618;2023-07-24T07:58:55;14.90;;;9.55;;
74415;SDS011;62850;42.428;25.618;2023-07-24T08:01:20;15.82;;;9.57;;
74415;SDS011;62850;42.428;25.618;2023-07-24T08:03:46;14.05;;;9.65;;
74415;SDS011;62850;42.428;25.618;2023-07-24T08:06:11;14.75;;;9.18;;
74415;SDS011;62850;42.428;25.618;2023-07-24T08:08:37;13.05;;;8.80;;
74415;SDS011;62850;42.428;25.618;2023-07-24T08:11:04;13.70;;;9.27;;
74415;SDS011;62850;42.428;25.618;2023-07-24T08:13:33;15.02;;;8.68;;
74415;SDS011;62850;42.428;25.618;2023-07-24T08:15:59;13.07;;;8.65;;
74415;SDS011;62850;42.428;25.618;2023-07-24T08:18:26;17.77;;;9.52;;
74415;SDS011;62850;42.428;25.618;2023-07-24T08:20:52;14.90;;;9.27;;
74415;SDS011;62850;42.428;25.618;2023-07-24T08:23:17;17.10;;;9.00;;
74415;SDS011;62850;42.428;25.618;2023-07-24T08:25:55;16.90;;;8.75;;
74415;SDS011;62850;42.428;25.618;2023-07-24T08:28:21;16.42;;;8.82;;
74415;SDS011;62850;42.428;25.618;2023-07-24T08:30:46;17.55;;;9.02;;
74415;SDS011;62850;42.428;25.618;2023-07-24T08:33:21;17.05;;;8.68;;
74415;SDS011;62850;42.428;25.618;2023-07-24T08:35:47;14.48;;;8.30;;
74415;SDS011;62850;42.428;25.618;2023-07-24T08:38:12;14.10;;;8.30;;
74415;SDS011;62850;42.428;25.618;2023-07-24T08:40:38;11.98;;;7.78;;
74415;SDS011;62850;42.428;25.618;2023-07-24T08:43:04;13.07;;;7.90;;
74415;SDS011;62850;42.428;25.618;2023-07-24T08:45:29;13.38;;;7.70;;
74415;SDS011;62850;42.428;25.618;2023-07-24T08:47:56;17.40;;;8.00;;
74415;SDS011;62850;42.428;25.618;2023-07-24T08:50:23;15.15;;;8.25;;
74415;SDS011;62850;42.428;25.618;2023-07-24T08:52:50;13.00;;;7.78;;
74415;SDS011;62850;42.428;25.618;2023-07-24T08:55:16;12.55;;;7.90;;
74415;SDS011;62850;42.428;25.618;2023-07-24T08:57:42;13.63;;;7.40;;
74415;SDS011;62850;42.428;25.618;2023-07-24T09:00:07;11.75;;;6.97;;
74415;SDS011;62850;42.428;25.618;2023-07-24T09:02:33;11.48;;;6.95;;
74415;SDS011;62850;42.428;25.618;2023-07-24T09:05:00;12.27;;;7.25;;
74415;SDS011;62850;42.428;25.618;2023-07-24T09:07:26;11.95;;;6.57;;
74415;SDS011;62850;42.428;25.618;2023-07-24T09:09:51;9.13;;;6.18;;
74415;SDS011;62850;42.428;25.618;2023-07-24T09:12:17;9.48;;;6.57;;
74415;SDS011;62850;42.428;25.618;2023-07-24T09:14:43;11.02;;;6.38;;
74415;SDS011;62850;42.428;25.618;2023-07-24T09:17:11;11.18;;;6.53;;
74415;SDS011;62850;42.428;25.618;2023-07-24T09:19:37;11.40;;;6.65;;
74415;SDS011;62850;42.428;25.618;2023-07-24T09:22:09;10.88;;;6.82;;
74415;SDS011;62850;42.428;25.618;2023-07-24T09:24:50;11.23;;;6.10;;
74415;SDS011;62850;42.428;25.618;2023-07-24T09:27:26;11.82;;;6.30;;
74415;SDS011;62850;42.428;25.618;2023-07-24T09:29:54;10.25;;;6.18;;
74415;SDS011;62850;42.428;25.618;2023-07-24T09:32:27;11.13;;;6.57;;
74415;SDS011;62850;42.428;25.618;2023-07-24T09:34:53;8.23;;;5.95;;
74415;SDS011;62850;42.428;25.618;2023-07-24T09:37:37;11.13;;;5.95;;
74415;SDS011;62850;42.428;25.618;2023-07-24T09:40:03;9.50;;;5.57;;
74415;SDS011;62850;42.428;25.618;2023-07-24T09:42:30;9.38;;;5.60;;
74415;SDS011;62850;42.428;25.618;2023-07-24T09:44:56;10.93;;;5.80;;
74415;SDS011;62850;42.428;25.618;2023-07-24T09:47:22;9.77;;;5.50;;
74415;SDS011;62850;42.428;25.618;2023-07-24T09:49:47;9.55;;;5.18;;
74415;SDS011;62850;42.428;25.618;2023-07-24T09:52:13;10.30;;;5.00;;
74415;SDS011;62850;42.428;25.618;2023-07-24T09:55:05;11.57;;;6.05;;
74415;SDS011;62850;42.428;25.618;2023-07-24T09:57:26;9.02;;;4.78;;
74415;SDS011;62850;42.428;25.618;2023-07-24T09:59:54;9.25;;;5.53;;
74415;SDS011;62850;42.428;25.618;2023-07-24T10:02:21;8.32;;;5.32;;
74415;SDS011;62850;42.428;25.618;2023-07-24T10:04:49;7.80;;;4.72;;
74415;SDS011;62850;42.428;25.618;2023-07-24T10:07:15;7.57;;;4.63;;
74415;SDS011;62850;42.428;25.618;2023-07-24T10:09:46;8.07;;;5.13;;
74415;SDS011;62850;42.428;25.618;2023-07-24T10:12:13;8.20;;;5.00;;
74415;SDS011;62850;42.428;25.618;2023-07-24T10:14:38;7.90;;;4.97;;
74415;SDS011;62850;42.428;25.618;2023-07-24T10:17:04;8.05;;;5.30;;
74415;SDS011;62850;42.428;25.618;2023-07-24T10:19:40;8.57;;;5.65;;
74415;SDS011;62850;42.428;25.618;2023-07-24T10:22:16;10.88;;;5.43;;
74415;SDS011;62850;42.428;25.618;2023-07-24T10:24:46;8.02;;;5.22;;
74415;SDS011;62850;42.428;25.618;2023-07-24T10:27:12;7.28;;;4.60;;
74415;SDS011;62850;42.428;25.618;2023-07-24T10:29:37;8.95;;;4.75;;
74415;SDS011;62850;42.428;25.618;2023-07-24T10:32:04;6.88;;;4.75;;
74415;SDS011;62850;42.428;25.618;2023-07-24T10:34:41;8.30;;;4.88;;
74415;SDS011;62850;42.428;25.618;2023-07-24T10:37:07;9.45;;;5.13;;
74415;SDS011;62850;42.428;25.618;2023-07-24T10:39:38;8.85;;;5.47;;
74415;SDS011;62850;42.428;25.618;2023-07-24T10:42:09;9.00;;;4.95;;
74415;SDS011;62850;42.428;25.618;2023-07-24T10:44:35;7.07;;;5.15;;
74415;SDS011;62850;42.428;25.618;2023-07-24T10:47:01;8.65;;;5.00;;
74415;SDS011;62850;42.428;25.618;2023-07-24T10:49:27;10.25;;;5.47;;
74415;SDS011;62850;42.428;25.618;2023-07-24T10:51:56;7.57;;;4.82;;
74415;SDS011;62850;42.428;25.618;2023-07-24T10:54:22;13.35;;;5.10;;
74415;SDS011;62850;42.428;25.618;2023-07-24T10:56:48;10.43;;;4.70;;
74415;SDS011;62850;42.428;25.618;2023-07-24T10:59:13;7.50;;;4.68;;
74415;SDS011;62850;42.428;25.618;2023-07-24T11:01:39;10.18;;;5.50;;
74415;SDS011;62850;42.428;25.618;2023-07-24T11:04:05;9.85;;;4.93;;
74415;SDS011;62850;42.428;25.618;2023-07-24T11:06:32;10.15;;;5.05;;
74415;SDS011;62850;42.428;25.618;2023-07-24T11:08:58;7.72;;;4.88;;
74415;SDS011;62850;42.428;25.618;2023-07-24T11:11:28;7.72;;;4.88;;
74415;SDS011;62850;42.428;25.618;2023-07-24T11:13:57;8.40;;;4.93;;
74415;SDS011;62850;42.428;25.618;2023-07-24T11:16:23;9.18;;;4.55;;
74415;SDS011;62850;42.428;25.618;2023-07-24T11:18:49;7.53;;;4.82;;
74415;SDS011;62850;42.428;25.618;2023-07-24T11:21:16;8.18;;;4.50;;
74415;SDS011;62850;42.428;25.618;2023-07-24T11:23:49;6.82;;;4.85;;
74415;SDS011;62850;42.428;25.618;2023-07-24T11:26:18;8.02;;;4.78;;
74415;SDS011;62850;42.428;25.618;2023-07-24T11:28:45;8.25;;;5.40;;
74415;SDS011;62850;42.428;25.618;2023-07-24T11:31:10;6.53;;;4.78;;
74415;SDS011;62850;42.428;25.618;2023-07-24T11:33:36;9.85;;;5.03;;
74415;SDS011;62850;42.428;25.618;2023-07-24T11:36:03;7.93;;;5.10;;
74415;SDS011;62850;42.428;25.618;2023-07-24T11:38:29;7.72;;;4.45;;
74415;SDS011;62850;42.428;25.618;2023-07-24T11:40:54;6.95;;;5.00;;
74415;SDS011;62850;42.428;25.618;2023-07-24T11:43:22;8.23;;;5.28;;
74415;SDS011;62850;42.428;25.618;2023-07-24T11:45:48;7.72;;;4.95;;
74415;SDS011;62850;42.428;25.618;2023-07-24T11:48:18;9.93;;;5.10;;
74415;SDS011;62850;42.428;25.618;2023-07-24T11:50:45;8.65;;;5.30;;
74415;SDS011;62850;42.428;25.618;2023-07-24T11:53:18;9.82;;;5.13;;
74415;SDS011;62850;42.428;25.618;2023-07-24T11:55:50;7.88;;;5.13;;
74415;SDS011;62850;42.428;25.618;2023-07-24T11:58:17;7.95;;;5.65;;
74415;SDS011;62850;42.428;25.618;2023-07-24T12:00:42;7.25;;;5.20;;
74415;SDS011;62850;42.428;25.618;2023-07-24T12:03:08;9.65;;;5.43;;
74415;SDS011;62850;42.428;25.618;2023-07-24T12:05:38;9.25;;;5.38;;
74415;SDS011;62850;42.428;25.618;2023-07-24T12:08:04;9.35;;;5.65;;
74415;SDS011;62850;42.428;25.618;2023-07-24T12:10:30;8.45;;;5.55;;
74415;SDS011;62850;42.428;25.618;2023-07-24T12:12:57;8.80;;;5.70;;
74415;SDS011;62850;42.428;25.618;2023-07-24T12:15:24;9.00;;;5.28;;
74415;SDS011;62850;42.428;25.618;2023-07-24T12:17:51;9.55;;;5.72;;
74415;SDS011;62850;42.428;25.618;2023-07-24T12:20:16;8.65;;;5.75;;
74415;SDS011;62850;42.428;25.618;2023-07-24T12:22:42;8.98;;;5.65;;
74415;SDS011;62850;42.428;25.618;2023-07-24T12:25:07;9.80;;;6.50;;
74415;SDS011;62850;42.428;25.618;2023-07-24T12:27:33;9.00;;;6.00;;
74415;SDS011;62850;42.428;25.618;2023-07-24T12:29:59;8.77;;;5.53;;
74415;SDS011;62850;42.428;25.618;2023-07-24T12:32:24;8.63;;;6.13;;
74415;SDS011;62850;42.428;25.618;2023-07-24T12:34:50;11.40;;;6.72;;
74415;SDS011;62850;42.428;25.618;2023-07-24T12:37:17;8.95;;;5.90;;
74415;SDS011;62850;42.428;25.618;2023-07-24T12:39:46;9.90;;;6.00;;
74415;SDS011;62850;42.428;25.618;2023-07-24T12:42:12;8.80;;;5.70;;
74415;SDS011;62850;42.428;25.618;2023-07-24T12:44:38;10.02;;;5.80;;
74415;SDS011;62850;42.428;25.618;2023-07-24T12:47:04;11.38;;;6.30;;
74415;SDS011;62850;42.428;25.618;2023-07-24T12:49:30;12.85;;;6.40;;
74415;SDS011;62850;42.428;25.618;2023-07-24T12:51:55;10.68;;;6.60;;
74415;SDS011;62850;42.428;25.618;2023-07-24T12:54:21;10.07;;;6.57;;
74415;SDS011;62850;42.428;25.618;2023-07-24T12:56:47;9.52;;;6.22;;
74415;SDS011;62850;42.428;25.618;2023-07-24T12:59:15;9.75;;;6.05;;
74415;SDS011;62850;42.428;25.618;2023-07-24T13:01:40;9.10;;;5.63;;
74415;SDS011;62850;42.428;25.618;2023-07-24T13:04:06;10.48;;;6.18;;
74415;SDS011;62850;42.428;25.618;2023-07-24T13:06:32;10.15;;;6.40;;
74415;SDS011;62850;42.428;25.618;2023-07-24T13:08:58;11.25;;;6.55;;
74415;SDS011;62850;42.428;25.618;2023-07-24T13:11:23;9.05;;;6.22;;
74415;SDS011;62850;42.428;25.618;2023-07-24T13:13:49;9.75;;;6.53;;
74415;SDS011;62850;42.428;25.618;2023-07-24T13:16:15;9.90;;;6.25;;
74415;SDS011;62850;42.428;25.618;2023-07-24T13:18:41;11.98;;;6.80;;
74415;SDS011;62850;42.428;25.618;2023-07-24T13:21:07;11.20;;;6.13;;
74415;SDS011;62850;42.428;25.618;2023-07-24T13:23:33;10.15;;;6.95;;
74415;SDS011;62850;42.428;25.618;2023-07-24T13:25:58;11.30;;;7.35;;
74415;SDS011;62850;42.428;25.618;2023-07-24T13:28:24;11.80;;;7.63;;
74415;SDS011;62850;42.428;25.618;2023-07-24T13:30:49;9.80;;;6.80;;
74415;SDS011;62850;42.428;25.618;2023-07-24T13:33:15;10.18;;;7.05;;
74415;SDS011;62850;42.428;25.618;2023-07-24T13:35:40;9.57;;;6.45;;
74415;SDS011;62850;42.428;25.618;2023-07-24T13:38:06;11.43;;;6.72;;
74415;SDS011;62850;42.428;25.618;2023-07-24T13:40:33;10.23;;;6.45;;
74415;SDS011;62850;42.428;25.618;2023-07-24T13:42:59;8.68;;;6.43;;
74415;SDS011;62850;42.428;25.618;2023-07-24T13:45:25;9.23;;;6.72;;
74415;SDS011;62850;42.428;25.618;2023-07-24T13:47:50;9.68;;;6.05;;
74415;SDS011;62850;42.428;25.618;2023-07-24T13:50:16;10.27;;;6.45;;
74415;SDS011;62850;42.428;25.618;2023-07-24T13:52:41;11.10;;;6.47;;
74415;SDS011;62850;42.428;25.618;2023-07-24T13:55:07;9.32;;;6.10;;
74415;SDS011;62850;42.428;25.618;2023-07-24T13:57:33;10.48;;;6.82;;
74415;SDS011;62850;42.428;25.618;2023-07-24T13:59:58;10.50;;;6.55;;
74415;SDS011;62850;42.428;25.618;2023-07-24T14:02:24;10.95;;;6.70;;
74415;SDS011;62850;42.428;25.618;2023-07-24T14:04:49;10.55;;;6.60;;
74415;SDS011;62850;42.428;25.618;2023-07-24T14:07:15;9.65;;;6.05;;
74415;SDS011;62850;42.428;25.618;2023-07-24T14:09:40;9.10;;;6.75;;
74415;SDS011;62850;42.428;25.618;2023-07-24T14:12:06;9.82;;;6.60;;
74415;SDS011;62850;42.428;25.618;2023-07-24T14:14:31;10.15;;;6.85;;
74415;SDS011;62850;42.428;25.618;2023-07-24T14:16:57;11.13;;;6.40;;
74415;SDS011;62850;42.428;25.618;2023-07-24T14:19:22;10.32;;;7.00;;
74415;SDS011;62850;42.428;25.618;2023-07-24T14:21:49;11.75;;;6.55;;
74415;SDS011;62850;42.428;25.618;2023-07-24T14:24:15;9.95;;;6.72;;
74415;SDS011;62850;42.428;25.618;2023-07-24T14:26:40;10.75;;;6.78;;